Time;durP1;ratioP1;P1;durP2;ratioP2;P2;SDS_P1;SDS_P2;PMS_P1;PMS_P2;Temp;Humidity;BMP_temperature;BMP_pressure;BME280_temperature;BME280_humidity;BME280_pressure;Samples;Min_cycle;Max_cycle;Signal;HPM_P1;HPM_P2
2022/03/12 00:00:11;;;;;;;16.57;2.80;;;;;;;;;;5093008;28;20501;-69
2022/03/12 00:02:38;;;;;;;8.57;5.47;;;;;;;;;;5092679;28;20520;-69
2022/03/12 00:05:07;;;;;;;4.17;3.77;;;;;;;;;;5092948;28;20458;-68
2022/03/12 00:07:35;;;;;;;8.20;4.73;;;;;;;;;;5092724;28;20466;-68
2022/03/12 00:10:02;;;;;;;4.10;2.40;;;;;;;;;;5093111;28;20802;-68
2022/03/12 00:12:34;;;;;;;8.60;3.77;;;;;;;;;;5092538;28;20537;-68
2022/03/12 00:15:09;;;;;;;9.77;3.47;;;;;;;;;;5092951;28;20450;-68
2022/03/12 00:17:36;;;;;;;6.47;4.43;;;;;;;;;;5092928;28;20534;-68
2022/03/12 00:20:12;;;;;;;8.03;4.90;;;;;;;;;;5092751;28;20460;-68
2022/03/12 00:22:39;;;;;;;7.17;4.43;;;;;;;;;;5095450;28;20454;-68
2022/03/12 00:25:10;;;;;;;12.83;5.70;;;;;;;;;;5096701;28;20454;-68
2022/03/12 00:27:41;;;;;;;6.17;4.57;;;;;;;;;;5097018;28;20474;-68
2022/03/12 00:30:09;;;;;;;11.73;5.70;;;;;;;;;;5097088;28;20488;-68
2022/03/12 00:32:36;;;;;;;10.43;5.07;;;;;;;;;;5096910;28;20982;-69
2022/03/12 00:35:03;;;;;;;9.47;5.83;;;;;;;;;;5096557;28;20488;-68
2022/03/12 00:37:31;;;;;;;8.50;4.00;;;;;;;;;;5096695;28;20485;-68
2022/03/12 00:39:58;;;;;;;8.33;4.47;;;;;;;;;;5096737;28;20855;-68
2022/03/12 00:42:25;;;;;;;8.67;4.80;;;;;;;;;;5096224;28;20482;-68
2022/03/12 00:44:53;;;;;;;9.17;5.80;;;;;;;;;;5096521;28;20803;-68
2022/03/12 00:47:20;;;;;;;6.77;4.20;;;;;;;;;;5096225;28;20474;-68
2022/03/12 00:49:49;;;;;;;8.90;6.03;;;;;;;;;;5096534;28;20496;-68
2022/03/12 00:52:17;;;;;;;8.53;5.23;;;;;;;;;;5096460;28;20442;-68
2022/03/12 00:54:44;;;;;;;7.20;5.27;;;;;;;;;;5096373;28;20454;-68
2022/03/12 00:57:12;;;;;;;8.03;4.63;;;;;;;;;;5096545;28;20478;-68
2022/03/12 00:59:39;;;;;;;1.97;1.77;;;;;;;;;;5096488;28;20455;-68
2022/03/12 01:02:10;;;;;;;10.27;4.40;;;;;;;;;;5096474;28;20493;-68
2022/03/12 01:04:37;;;;;;;4.50;3.40;;;;;;;;;;5095815;28;20949;-68
2022/03/12 01:07:04;;;;;;;7.43;3.80;;;;;;;;;;5096493;28;20474;-68
2022/03/12 01:09:31;;;;;;;11.97;6.10;;;;;;;;;;5096354;28;20459;-68
2022/03/12 01:11:58;;;;;;;6.43;5.37;;;;;;;;;;5096199;28;20973;-68
2022/03/12 01:14:26;;;;;;;13.53;4.53;;;;;;;;;;5095945;28;20951;-68
2022/03/12 01:16:57;;;;;;;6.40;4.80;;;;;;;;;;5095668;28;20454;-68
2022/03/12 01:19:25;;;;;;;9.23;4.93;;;;;;;;;;5096176;28;20457;-68
2022/03/12 01:21:52;;;;;;;7.77;4.80;;;;;;;;;;5095967;28;20490;-68
2022/03/12 01:24:20;;;;;;;5.63;4.47;;;;;;;;;;5095818;28;20443;-68
2022/03/12 01:26:47;;;;;;;5.60;2.60;;;;;;;;;;5095845;28;20504;-68
2022/03/12 01:29:16;;;;;;;4.37;3.60;;;;;;;;;;5095830;28;20443;-68
2022/03/12 01:31:43;;;;;;;20.33;4.20;;;;;;;;;;5095780;28;20457;-68
2022/03/12 01:34:10;;;;;;;10.00;5.20;;;;;;;;;;5094808;28;20443;-68
2022/03/12 01:36:39;;;;;;;5.20;3.00;;;;;;;;;;5095574;28;20453;-68
2022/03/12 01:39:06;;;;;;;8.10;4.37;;;;;;;;;;5095598;28;20454;-68
2022/03/12 01:41:33;;;;;;;8.33;5.27;;;;;;;;;;5095655;28;20486;-68
2022/03/12 01:44:01;;;;;;;11.53;5.80;;;;;;;;;;5095271;28;20455;-68
2022/03/12 01:46:32;;;;;;;10.83;5.70;;;;;;;;;;5095630;28;20461;-68
2022/03/12 01:49:00;;;;;;;20.80;5.30;;;;;;;;;;5095181;28;20818;-68
2022/03/12 01:51:27;;;;;;;12.67;5.37;;;;;;;;;;5095456;28;20450;-68
2022/03/12 01:53:56;;;;;;;16.77;5.13;;;;;;;;;;5095112;28;20450;-68
2022/03/12 01:56:27;;;;;;;8.17;5.17;;;;;;;;;;5095379;28;20805;-68
2022/03/12 01:58:54;;;;;;;11.13;5.57;;;;;;;;;;5095117;28;20979;-68
2022/03/12 02:01:22;;;;;;;6.90;3.10;;;;;;;;;;5095261;28;20486;-68
2022/03/12 02:03:49;;;;;;;7.63;4.00;;;;;;;;;;5094679;28;20477;-68
2022/03/12 02:06:22;;;;;;;7.47;4.63;;;;;;;;;;5095191;28;20447;-68
2022/03/12 02:08:49;;;;;;;4.30;3.90;;;;;;;;;;5095029;28;20471;-68
2022/03/12 02:11:27;;;;;;;13.13;4.40;;;;;;;;;;5095150;28;20451;-68
2022/03/12 02:14:04;;;;;;;16.40;6.30;;;;;;;;;;5094710;28;21028;-68
2022/03/12 02:16:31;;;;;;;5.77;3.33;;;;;;;;;;5094899;28;20461;-68
2022/03/12 02:18:59;;;;;;;8.00;4.53;;;;;;;;;;5094925;28;20553;-68
2022/03/12 02:21:34;;;;;;;12.90;7.47;;;;;;;;;;5094871;28;20478;-68
2022/03/12 02:24:03;;;;;;;4.90;4.00;;;;;;;;;;5094556;28;20485;-68
2022/03/12 02:26:30;;;;;;;15.50;5.10;;;;;;;;;;5094837;28;20455;-68
2022/03/12 02:28:58;;;;;;;7.00;3.83;;;;;;;;;;5094642;28;20470;-68
2022/03/12 02:31:26;;;;;;;5.23;3.13;;;;;;;;;;5094628;28;20446;-68
2022/03/12 02:33:54;;;;;;;6.93;3.77;;;;;;;;;;5094320;28;20457;-68
2022/03/12 02:36:26;;;;;;;9.93;4.37;;;;;;;;;;5094522;28;21014;-68
2022/03/12 02:38:54;;;;;;;10.17;5.17;;;;;;;;;;5094360;28;20690;-68
2022/03/12 02:41:24;;;;;;;11.53;5.13;;;;;;;;;;5094520;28;20510;-68
2022/03/12 02:43:52;;;;;;;5.97;4.63;;;;;;;;;;5094166;28;20457;-68
2022/03/12 02:46:19;;;;;;;8.37;4.70;;;;;;;;;;5094343;28;20450;-68
2022/03/12 02:48:49;;;;;;;7.60;5.17;;;;;;;;;;5093928;28;20482;-68
2022/03/12 02:51:16;;;;;;;9.43;4.30;;;;;;;;;;5094458;28;20455;-68
2022/03/12 02:53:44;;;;;;;9.10;4.87;;;;;;;;;;5094056;28;20476;-68
2022/03/12 02:56:12;;;;;;;7.43;4.83;;;;;;;;;;5094306;28;20446;-68
2022/03/12 02:58:41;;;;;;;3.90;3.20;;;;;;;;;;5094192;28;20490;-68
2022/03/12 03:01:13;;;;;;;12.90;5.50;;;;;;;;;;5094058;28;20865;-68
2022/03/12 03:03:42;;;;;;;5.83;3.83;;;;;;;;;;5093566;28;20541;-68
2022/03/12 03:06:09;;;;;;;3.93;3.57;;;;;;;;;;5094162;28;20450;-68
2022/03/12 03:08:39;;;;;;;7.67;5.03;;;;;;;;;;5094027;28;20467;-68
2022/03/12 03:11:12;;;;;;;5.93;4.30;;;;;;;;;;5093580;28;20451;-68
2022/03/12 03:13:44;;;;;;;22.30;6.23;;;;;;;;;;5093622;28;20508;-69
2022/03/12 03:16:14;;;;;;;7.93;6.40;;;;;;;;;;5093991;28;20519;-68
2022/03/12 03:18:41;;;;;;;7.03;4.90;;;;;;;;;;5093901;28;20504;-68
2022/03/12 03:21:09;;;;;;;9.10;5.37;;;;;;;;;;5093770;28;20442;-68
2022/03/12 03:23:36;;;;;;;10.63;5.23;;;;;;;;;;5093519;28;20524;-69
2022/03/12 03:26:04;;;;;;;7.43;4.90;;;;;;;;;;5093567;28;20959;-68
2022/03/12 03:28:31;;;;;;;5.10;4.57;;;;;;;;;;5093765;28;20471;-68
2022/03/12 03:31:00;;;;;;;7.97;5.23;;;;;;;;;;5093536;28;20446;-68
2022/03/12 03:33:27;;;;;;;6.50;4.67;;;;;;;;;;5093573;28;20826;-69
2022/03/12 03:35:54;;;;;;;8.83;4.50;;;;;;;;;;5093475;28;20936;-68
2022/03/12 03:38:21;;;;;;;12.13;5.90;;;;;;;;;;5093372;28;20474;-68
2022/03/12 03:40:49;;;;;;;8.37;4.73;;;;;;;;;;5093249;28;20829;-68
2022/03/12 03:43:17;;;;;;;7.87;5.33;;;;;;;;;;5093415;28;20497;-68
2022/03/12 03:45:45;;;;;;;8.80;4.67;;;;;;;;;;5093011;28;20461;-68
2022/03/12 03:48:14;;;;;;;8.47;5.00;;;;;;;;;;5093101;28;20490;-68
2022/03/12 03:50:42;;;;;;;7.77;4.60;;;;;;;;;;5093344;28;20450;-68
2022/03/12 03:53:11;;;;;;;9.00;4.80;;;;;;;;;;5093224;28;20450;-68
2022/03/12 03:55:38;;;;;;;7.77;4.53;;;;;;;;;;5092923;28;20821;-68
2022/03/12 03:58:06;;;;;;;6.90;4.33;;;;;;;;;;5092741;28;20547;-68
2022/03/12 04:00:33;;;;;;;23.10;5.60;;;;;;;;;;5093265;28;20450;-68
2022/03/12 04:03:02;;;;;;;5.97;4.47;;;;;;;;;;5092815;28;20489;-68
2022/03/12 04:05:32;;;;;;;6.13;4.33;;;;;;;;;;5092899;28;20453;-68
2022/03/12 04:08:00;;;;;;;4.90;4.00;;;;;;;;;;5092900;28;20816;-68
2022/03/12 04:10:27;;;;;;;8.07;4.60;;;;;;;;;;5093317;28;20458;-68
2022/03/12 04:12:54;;;;;;;9.00;5.33;;;;;;;;;;5092948;28;20453;-68
2022/03/12 04:15:22;;;;;;;8.10;5.37;;;;;;;;;;5092866;28;20451;-68
2022/03/12 04:17:51;;;;;;;10.53;4.30;;;;;;;;;;5092876;28;20502;-68
2022/03/12 04:20:18;;;;;;;5.97;4.50;;;;;;;;;;5093048;28;20474;-68
2022/03/12 04:22:48;;;;;;;4.90;3.70;;;;;;;;;;5092786;28;20497;-68
2022/03/12 04:25:15;;;;;;;6.20;4.17;;;;;;;;;;5092715;28;20446;-68
2022/03/12 04:27:44;;;;;;;6.37;4.17;;;;;;;;;;5092794;28;20470;-68
2022/03/12 04:30:12;;;;;;;9.80;4.17;;;;;;;;;;5092973;28;20450;-68
2022/03/12 04:32:39;;;;;;;10.83;4.57;;;;;;;;;;5092948;28;20471;-68
2022/03/12 04:35:07;;;;;;;7.87;4.90;;;;;;;;;;5092449;28;20458;-68
2022/03/12 04:37:34;;;;;;;8.30;4.37;;;;;;;;;;5092910;28;20474;-68
2022/03/12 04:40:03;;;;;;;6.17;4.37;;;;;;;;;;5092788;28;20450;-68
2022/03/12 04:42:31;;;;;;;5.03;4.00;;;;;;;;;;5092773;28;20486;-68
2022/03/12 04:44:58;;;;;;;11.90;5.03;;;;;;;;;;5092466;28;20474;-68
2022/03/12 04:47:25;;;;;;;7.47;4.83;;;;;;;;;;5092626;28;21014;-68
2022/03/12 04:49:52;;;;;;;4.63;4.23;;;;;;;;;;5092802;28;20538;-68
2022/03/12 04:52:20;;;;;;;7.10;4.27;;;;;;;;;;5092743;28;20446;-68
2022/03/12 04:54:47;;;;;;;6.37;4.13;;;;;;;;;;5092400;28;20553;-68
2022/03/12 04:57:16;;;;;;;10.10;5.60;;;;;;;;;;5092665;28;20475;-68
2022/03/12 04:59:43;;;;;;;8.77;5.53;;;;;;;;;;5092556;28;20447;-69
2022/03/12 05:02:12;;;;;;;6.83;4.33;;;;;;;;;;5092576;28;20489;-68
2022/03/12 05:04:40;;;;;;;5.97;4.27;;;;;;;;;;5091939;28;20500;-68
2022/03/12 05:07:08;;;;;;;9.63;3.83;;;;;;;;;;5092608;28;20966;-68
2022/03/12 05:09:36;;;;;;;7.53;4.23;;;;;;;;;;5094824;28;20901;-68
2022/03/12 05:12:05;;;;;;;10.80;5.10;;;;;;;;;;5096265;28;20791;-68
2022/03/12 05:14:35;;;;;;;10.30;4.80;;;;;;;;;;5095920;28;20455;-68
2022/03/12 05:17:03;;;;;;;7.90;4.80;;;;;;;;;;5096146;28;20979;-68
2022/03/12 05:19:31;;;;;;;7.40;3.90;;;;;;;;;;5095998;28;20465;-68
2022/03/12 05:21:58;;;;;;;7.07;4.70;;;;;;;;;;5095870;28;20571;-68
2022/03/12 05:24:25;;;;;;;6.77;4.00;;;;;;;;;;5095845;28;20630;-68
2022/03/12 05:26:52;;;;;;;8.77;5.23;;;;;;;;;;5095661;28;20454;-68
2022/03/12 05:29:22;;;;;;;10.57;5.13;;;;;;;;;;5095892;28;20454;-68
2022/03/12 05:31:52;;;;;;;6.10;4.47;;;;;;;;;;5095724;28;20507;-68
2022/03/12 05:34:19;;;;;;;8.53;5.00;;;;;;;;;;5095817;28;20451;-68
2022/03/12 05:36:46;;;;;;;10.10;5.03;;;;;;;;;;5095585;28;20455;-68
2022/03/12 05:39:15;;;;;;;12.20;5.70;;;;;;;;;;5095740;28;20451;-68
2022/03/12 05:41:44;;;;;;;6.17;4.90;;;;;;;;;;5095617;28;20470;-69
2022/03/12 05:44:14;;;;;;;8.50;4.70;;;;;;;;;;5095464;28;20809;-69
2022/03/12 05:46:41;;;;;;;10.63;4.70;;;;;;;;;;5095451;28;20446;-68
2022/03/12 05:49:10;;;;;;;5.67;4.30;;;;;;;;;;5095356;28;20523;-68
2022/03/12 05:51:37;;;;;;;7.70;4.60;;;;;;;;;;5095419;28;20451;-68
2022/03/12 05:54:04;;;;;;;11.33;3.73;;;;;;;;;;5095251;28;20466;-68
2022/03/12 05:56:32;;;;;;;3.97;2.83;;;;;;;;;;5095340;28;20791;-68
2022/03/12 05:58:59;;;;;;;5.73;4.50;;;;;;;;;;5095233;28;20466;-68
2022/03/12 06:01:26;;;;;;;10.53;5.60;;;;;;;;;;5095186;28;20450;-68
2022/03/12 06:03:55;;;;;;;8.67;5.93;;;;;;;;;;5094407;28;21022;-68
2022/03/12 06:06:29;;;;;;;7.20;5.07;;;;;;;;;;5095237;28;20936;-68
2022/03/12 06:08:57;;;;;;;3.53;2.73;;;;;;;;;;5095082;28;20505;-68
2022/03/12 06:11:25;;;;;;;6.37;4.27;;;;;;;;;;5094563;28;20446;-69
2022/03/12 06:13:59;;;;;;;6.33;4.23;;;;;;;;;;5094587;28;20458;-69
2022/03/12 06:16:27;;;;;;;11.60;4.23;;;;;;;;;;5095026;28;20480;-68
2022/03/12 06:18:54;;;;;;;6.23;3.57;;;;;;;;;;5094496;28;20470;-68
2022/03/12 06:21:22;;;;;;;9.10;4.53;;;;;;;;;;5094715;28;20480;-68
2022/03/12 06:23:54;;;;;;;5.07;3.67;;;;;;;;;;5094442;28;20577;-68
2022/03/12 06:26:21;;;;;;;8.90;3.63;;;;;;;;;;5095057;28;20955;-68
2022/03/12 06:28:48;;;;;;;5.97;4.10;;;;;;;;;;5094848;28;20466;-68
2022/03/12 06:31:16;;;;;;;7.17;4.60;;;;;;;;;;5094657;28;20943;-68
2022/03/12 06:33:44;;;;;;;10.50;5.30;;;;;;;;;;5094432;28;20553;-69
2022/03/12 06:36:12;;;;;;;9.73;5.03;;;;;;;;;;5094634;28;20939;-69
2022/03/12 06:38:39;;;;;;;5.90;3.70;;;;;;;;;;5094518;28;20852;-69
2022/03/12 06:41:08;;;;;;;5.50;4.80;;;;;;;;;;5094514;28;20970;-69
2022/03/12 06:43:37;;;;;;;9.90;5.70;;;;;;;;;;5094208;28;21078;-69
2022/03/12 06:46:04;;;;;;;7.80;5.50;;;;;;;;;;5094286;28;20459;-69
2022/03/12 06:48:32;;;;;;;9.47;7.03;;;;;;;;;;5094216;28;20478;-69
2022/03/12 06:50:59;;;;;;;9.40;5.13;;;;;;;;;;5093849;28;20455;-69
2022/03/12 06:53:26;;;;;;;7.67;4.90;;;;;;;;;;5096331;28;20547;-69
2022/03/12 06:55:54;;;;;;;9.60;5.70;;;;;;;;;;5102573;28;20493;-69
2022/03/12 06:58:26;;;;;;;13.57;6.20;;;;;;;;;;5092664;28;20493;-69
2022/03/12 07:00:53;;;;;;;11.20;7.20;;;;;;;;;;5092604;28;20977;-69
2022/03/12 07:03:20;;;;;;;10.90;5.87;;;;;;;;;;5092305;28;20488;-69
2022/03/12 07:05:47;;;;;;;11.30;7.40;;;;;;;;;;5092374;28;20928;-69
2022/03/12 07:08:15;;;;;;;8.03;5.83;;;;;;;;;;5092435;28;20483;-69
2022/03/12 07:10:42;;;;;;;8.20;5.67;;;;;;;;;;5092004;28;20454;-69
2022/03/12 07:13:09;;;;;;;9.17;7.00;;;;;;;;;;5092682;28;20447;-69
2022/03/12 07:15:38;;;;;;;6.50;5.10;;;;;;;;;;5092385;28;20979;-69
2022/03/12 07:18:05;;;;;;;7.27;5.50;;;;;;;;;;5092983;28;20467;-69
2022/03/12 07:20:33;;;;;;;10.33;6.60;;;;;;;;;;5093815;28;20459;-69
2022/03/12 07:23:00;;;;;;;13.43;10.73;;;;;;;;;;5091257;28;20521;-69
2022/03/12 07:25:28;;;;;;;8.67;6.50;;;;;;;;;;5091975;28;20815;-69
2022/03/12 07:27:55;;;;;;;13.20;8.83;;;;;;;;;;5091977;28;20475;-69
2022/03/12 07:30:22;;;;;;;10.13;7.27;;;;;;;;;;5092059;28;20586;-69
2022/03/12 07:32:51;;;;;;;8.60;6.27;;;;;;;;;;5091541;28;20451;-69
2022/03/12 07:35:19;;;;;;;9.20;7.00;;;;;;;;;;5092074;28;20451;-69
2022/03/12 07:37:48;;;;;;;7.50;6.00;;;;;;;;;;5091995;28;21009;-69
2022/03/12 07:40:16;;;;;;;11.30;6.50;;;;;;;;;;5092353;28;20458;-69
2022/03/12 07:42:43;;;;;;;12.77;4.63;;;;;;;;;;5091856;28;20556;-69
2022/03/12 07:45:11;;;;;;;26.47;14.83;;;;;;;;;;5092005;28;20447;-69
2022/03/12 07:47:39;;;;;;;8.97;6.20;;;;;;;;;;5091748;28;20486;-69
2022/03/12 07:50:09;;;;;;;9.77;6.27;;;;;;;;;;5092289;28;20474;-70
2022/03/12 07:52:37;;;;;;;20.73;11.90;;;;;;;;;;5092018;28;20451;-70
2022/03/12 07:55:05;;;;;;;11.20;6.60;;;;;;;;;;5091644;28;20457;-69
2022/03/12 07:57:33;;;;;;;14.37;7.73;;;;;;;;;;5091777;28;20529;-69
2022/03/12 08:00:00;;;;;;;23.30;15.23;;;;;;;;;;5092155;28;21022;-69
2022/03/12 08:02:27;;;;;;;12.50;6.77;;;;;;;;;;5093236;28;20465;-69
2022/03/12 08:04:55;;;;;;;9.90;5.70;;;;;;;;;;5092229;28;20819;-69
2022/03/12 08:07:24;;;;;;;9.47;6.20;;;;;;;;;;5093199;28;20487;-69
2022/03/12 08:09:56;;;;;;;7.97;5.80;;;;;;;;;;5093218;28;20927;-69
2022/03/12 08:12:23;;;;;;;12.80;7.60;;;;;;;;;;5092784;28;20447;-69
2022/03/12 08:14:50;;;;;;;9.43;5.93;;;;;;;;;;5092817;28;20886;-69
2022/03/12 08:17:19;;;;;;;10.97;7.00;;;;;;;;;;5093093;28;20562;-69
2022/03/12 08:19:47;;;;;;;9.53;7.17;;;;;;;;;;5092927;28;20867;-69
2022/03/12 08:22:14;;;;;;;8.93;5.30;;;;;;;;;;5093073;28;20632;-69
2022/03/12 08:24:43;;;;;;;10.73;5.00;;;;;;;;;;5092660;28;20573;-70
2022/03/12 08:27:14;;;;;;;9.10;5.93;;;;;;;;;;5092983;28;20974;-69
2022/03/12 08:29:41;;;;;;;9.63;6.20;;;;;;;;;;5093083;28;20541;-69
2022/03/12 08:32:09;;;;;;;7.73;4.83;;;;;;;;;;5092920;28;20504;-70
2022/03/12 08:34:36;;;;;;;6.80;6.10;;;;;;;;;;5092655;28;20542;-70
2022/03/12 08:37:04;;;;;;;7.13;5.50;;;;;;;;;;5092869;28;20514;-70
2022/03/12 08:39:31;;;;;;;11.67;6.20;;;;;;;;;;5092848;28;20454;-70
2022/03/12 08:42:00;;;;;;;8.80;5.77;;;;;;;;;;5092775;28;20458;-70
2022/03/12 08:44:27;;;;;;;13.93;6.37;;;;;;;;;;5096411;28;20482;-70
2022/03/12 08:46:54;;;;;;;9.00;6.10;;;;;;;;;;5096483;28;20447;-70
2022/03/12 08:49:21;;;;;;;9.80;6.70;;;;;;;;;;5096773;28;20465;-70
2022/03/12 08:51:49;;;;;;;9.00;6.10;;;;;;;;;;5096660;28;20461;-70
2022/03/12 08:54:16;;;;;;;12.83;6.50;;;;;;;;;;5096542;28;20450;-70
2022/03/12 08:56:43;;;;;;;9.50;6.60;;;;;;;;;;5096491;28;20448;-70
2022/03/12 08:59:12;;;;;;;12.80;6.77;;;;;;;;;;5096604;28;20472;-69
2022/03/12 09:01:41;;;;;;;8.50;5.70;;;;;;;;;;5096489;28;20447;-69
2022/03/12 09:04:08;;;;;;;15.30;6.70;;;;;;;;;;5095848;28;20493;-70
2022/03/12 09:06:35;;;;;;;16.53;6.70;;;;;;;;;;5096312;28;20462;-70
2022/03/12 09:09:04;;;;;;;7.37;5.37;;;;;;;;;;5096637;28;20494;-70
2022/03/12 09:11:31;;;;;;;13.40;6.20;;;;;;;;;;5095981;28;20457;-70
2022/03/12 09:13:58;;;;;;;11.23;7.40;;;;;;;;;;5096168;28;21000;-70
2022/03/12 09:16:27;;;;;;;8.73;6.90;;;;;;;;;;5096228;28;20454;-69
2022/03/12 09:18:54;;;;;;;7.80;5.13;;;;;;;;;;5095907;28;20470;-69
2022/03/12 09:21:21;;;;;;;7.67;5.53;;;;;;;;;;5096031;28;20451;-69
2022/03/12 09:23:48;;;;;;;8.57;6.87;;;;;;;;;;5095792;28;20485;-70
2022/03/12 09:26:17;;;;;;;8.37;5.97;;;;;;;;;;5096015;28;20808;-70
2022/03/12 09:28:44;;;;;;;9.80;6.17;;;;;;;;;;5095593;28;20536;-70
2022/03/12 09:31:12;;;;;;;7.37;6.40;;;;;;;;;;5103466;28;20982;-70
2022/03/12 09:33:41;;;;;;;9.30;5.87;;;;;;;;;;5114542;28;20988;-70
2022/03/12 09:36:09;;;;;;;13.13;6.07;;;;;;;;;;5114452;28;20489;-70
2022/03/12 09:38:36;;;;;;;7.87;5.67;;;;;;;;;;5114165;28;20476;-70
2022/03/12 09:41:03;;;;;;;8.70;6.27;;;;;;;;;;5114606;28;20883;-70
2022/03/12 09:43:30;;;;;;;7.30;5.70;;;;;;;;;;5114272;28;21013;-70
2022/03/12 09:45:59;;;;;;;7.17;6.03;;;;;;;;;;5114506;28;20502;-70
2022/03/12 09:48:26;;;;;;;9.03;5.80;;;;;;;;;;5113977;28;20485;-70
2022/03/12 09:50:55;;;;;;;7.00;6.27;;;;;;;;;;5114387;28;20453;-70
2022/03/12 09:53:22;;;;;;;6.20;4.60;;;;;;;;;;5114289;28;20950;-70
2022/03/12 09:55:50;;;;;;;9.47;6.30;;;;;;;;;;5113268;28;20453;-70
2022/03/12 09:58:17;;;;;;;7.60;5.80;;;;;;;;;;5114470;28;20562;-70
2022/03/12 10:00:44;;;;;;;9.10;6.33;;;;;;;;;;5114101;28;20452;-70
2022/03/12 10:03:11;;;;;;;9.90;6.23;;;;;;;;;;5113817;27;20450;-70
2022/03/12 10:05:38;;;;;;;8.17;5.83;;;;;;;;;;5114127;28;20517;-70
2022/03/12 10:08:07;;;;;;;8.73;6.20;;;;;;;;;;5113862;28;20885;-70
2022/03/12 10:10:35;;;;;;;13.33;7.20;;;;;;;;;;5113979;28;20449;-70
2022/03/12 10:13:04;;;;;;;7.73;5.10;;;;;;;;;;5113996;28;20446;-70
2022/03/12 10:15:31;;;;;;;10.47;7.23;;;;;;;;;;5113902;28;20831;-70
2022/03/12 10:17:59;;;;;;;14.03;8.87;;;;;;;;;;5113777;28;20465;-70
2022/03/12 10:20:26;;;;;;;7.87;4.50;;;;;;;;;;5113976;28;20552;-70
2022/03/12 10:22:54;;;;;;;8.00;5.77;;;;;;;;;;5113734;28;20457;-70
2022/03/12 10:25:22;;;;;;;7.43;5.13;;;;;;;;;;5113677;28;21044;-70
2022/03/12 10:27:50;;;;;;;8.03;5.60;;;;;;;;;;5113423;28;20473;-69
2022/03/12 10:30:17;;;;;;;6.20;5.33;;;;;;;;;;5113953;28;20446;-69
2022/03/12 10:32:45;;;;;;;9.27;5.40;;;;;;;;;;5113626;28;20449;-70
2022/03/12 10:35:14;;;;;;;7.80;4.90;;;;;;;;;;5113483;28;20783;-70
2022/03/12 10:37:41;;;;;;;9.77;5.70;;;;;;;;;;5113220;28;20478;-70
2022/03/12 10:40:10;;;;;;;8.23;5.43;;;;;;;;;;5113654;28;20867;-70
2022/03/12 10:42:40;;;;;;;7.23;4.47;;;;;;;;;;5113649;28;20988;-70
2022/03/12 10:45:09;;;;;;;7.73;5.13;;;;;;;;;;5113236;28;20482;-69
2022/03/12 10:47:40;;;;;;;15.40;5.90;;;;;;;;;;5113314;28;20753;-73
2022/03/12 10:50:10;;;;;;;7.43;5.50;;;;;;;;;;5113296;28;20445;-72
2022/03/12 10:52:38;;;;;;;8.27;4.90;;;;;;;;;;5113446;28;20489;-73
2022/03/12 10:55:12;;;;;;;5.93;5.30;;;;;;;;;;5113002;28;20460;-73
2022/03/12 10:57:40;;;;;;;6.40;4.67;;;;;;;;;;5113060;28;20560;-73
2022/03/12 11:00:10;;;;;;;10.33;5.73;;;;;;;;;;5112913;28;20852;-73
2022/03/12 11:02:38;;;;;;;7.97;4.40;;;;;;;;;;5113019;28;20876;-74
2022/03/12 11:05:05;;;;;;;7.60;5.37;;;;;;;;;;5112425;28;20486;-73
2022/03/12 11:07:32;;;;;;;7.63;5.20;;;;;;;;;;5111935;28;20847;-73
2022/03/12 11:10:00;;;;;;;10.63;5.40;;;;;;;;;;5113132;28;20445;-73
2022/03/12 11:12:30;;;;;;;6.17;4.47;;;;;;;;;;5112927;28;20460;-74
2022/03/12 11:15:13;;;;;;;7.53;5.10;;;;;;;;;;5112672;28;20498;-72
2022/03/12 11:17:43;;;;;;;7.33;5.10;;;;;;;;;;5112628;28;20872;-73
2022/03/12 11:20:17;;;;;;;6.60;5.60;;;;;;;;;;5112931;28;20457;-72
2022/03/12 11:22:45;;;;;;;7.13;5.43;;;;;;;;;;5112707;28;20477;-74
2022/03/12 11:25:17;;;;;;;6.57;4.83;;;;;;;;;;5112542;28;20486;-73
2022/03/12 11:27:49;;;;;;;7.70;4.30;;;;;;;;;;5112284;28;20469;-73
2022/03/12 11:30:21;;;;;;;32.27;19.77;;;;;;;;;;5112811;28;20454;-72
2022/03/12 11:32:48;;;;;;;7.90;5.77;;;;;;;;;;5112654;28;20445;-73
2022/03/12 11:35:18;;;;;;;6.13;4.87;;;;;;;;;;5112542;28;20442;-73
2022/03/12 11:37:45;;;;;;;6.60;5.33;;;;;;;;;;5112439;28;20477;-73
2022/03/12 11:40:18;;;;;;;5.33;4.83;;;;;;;;;;5112595;27;20472;-73
2022/03/12 11:42:47;;;;;;;5.20;4.70;;;;;;;;;;5112344;28;20824;-72
2022/03/12 11:45:15;;;;;;;4.90;4.13;;;;;;;;;;5112082;28;20488;-72
2022/03/12 11:47:44;;;;;;;5.90;4.40;;;;;;;;;;5111998;28;20589;-73
2022/03/12 11:50:15;;;;;;;6.60;5.00;;;;;;;;;;5112492;28;20822;-73
2022/03/12 11:52:42;;;;;;;9.87;5.23;;;;;;;;;;5112089;28;20457;-73
2022/03/12 11:55:14;;;;;;;7.80;5.10;;;;;;;;;;5112135;28;20813;-73
2022/03/12 11:57:41;;;;;;;6.03;4.67;;;;;;;;;;5112205;28;20469;-73
2022/03/12 12:00:12;;;;;;;8.77;5.53;;;;;;;;;;5111972;28;20450;-73
2022/03/12 12:02:39;;;;;;;7.60;4.80;;;;;;;;;;5112043;28;20579;-73
2022/03/12 12:05:11;;;;;;;7.13;5.27;;;;;;;;;;5111972;28;20485;-74
2022/03/12 12:07:39;;;;;;;5.30;4.47;;;;;;;;;;5111805;28;20477;-72
2022/03/12 12:10:07;;;;;;;9.50;5.53;;;;;;;;;;5111874;28;20514;-73
2022/03/12 12:12:35;;;;;;;5.23;4.70;;;;;;;;;;5111991;28;20452;-73
2022/03/12 12:15:04;;;;;;;11.83;4.97;;;;;;;;;;5110451;28;20450;-72
2022/03/12 12:17:32;;;;;;;6.23;4.83;;;;;;;;;;5112615;28;20678;-73
2022/03/12 12:19:59;;;;;;;5.20;4.17;;;;;;;;;;5116063;28;20953;-73
2022/03/12 12:22:28;;;;;;;14.30;5.63;;;;;;;;;;5116169;28;20450;-73
2022/03/12 12:24:56;;;;;;;7.80;5.60;;;;;;;;;;5115664;27;20485;-72
2022/03/12 12:27:24;;;;;;;7.00;5.60;;;;;;;;;;5115983;28;20795;-73
2022/03/12 12:29:54;;;;;;;5.53;4.50;;;;;;;;;;5115665;28;20453;-73
2022/03/12 12:32:22;;;;;;;7.47;5.17;;;;;;;;;;5115879;28;20912;-74
2022/03/12 12:34:59;;;;;;;9.57;5.20;;;;;;;;;;5115414;28;20446;-73
2022/03/12 12:37:41;;;;;;;5.80;4.60;;;;;;;;;;5115810;28;20472;-72
2022/03/12 12:40:20;;;;;;;5.73;4.10;;;;;;;;;;5116076;28;20452;-73
2022/03/12 12:42:47;;;;;;;7.10;4.33;;;;;;;;;;5115700;27;20445;-73
2022/03/12 12:45:15;;;;;;;4.23;3.77;;;;;;;;;;5115520;28;20852;-73
2022/03/12 12:47:42;;;;;;;4.30;3.90;;;;;;;;;;5115337;27;20484;-73
2022/03/12 12:50:19;;;;;;;6.90;4.80;;;;;;;;;;5115646;28;20449;-72
2022/03/12 12:53:01;;;;;;;27.53;17.50;;;;;;;;;;5115944;28;20452;-72
2022/03/12 12:55:33;;;;;;;8.67;5.83;;;;;;;;;;5116646;28;21060;-72
2022/03/12 12:58:00;;;;;;;11.93;10.30;;;;;;;;;;5116401;28;20500;-73
2022/03/12 13:00:34;;;;;;;7.80;4.93;;;;;;;;;;5116772;28;20449;-72
2022/03/12 13:03:04;;;;;;;9.70;4.40;;;;;;;;;;5116175;27;20541;-73
2022/03/12 13:05:45;;;;;;;6.13;5.40;;;;;;;;;;5116426;27;20504;-72
2022/03/12 13:08:13;;;;;;;5.97;4.73;;;;;;;;;;5116430;28;20478;-72
2022/03/12 13:10:42;;;;;;;5.97;4.47;;;;;;;;;;5116482;28;20510;-71
2022/03/12 13:13:12;;;;;;;6.87;4.60;;;;;;;;;;5115955;28;20449;-72
2022/03/12 13:15:40;;;;;;;6.97;5.10;;;;;;;;;;5116173;28;20481;-72
2022/03/12 13:18:26;;;;;;;4.67;4.10;;;;;;;;;;5116507;28;20469;-73
2022/03/12 13:20:53;;;;;;;7.17;4.80;;;;;;;;;;5116351;28;20449;-72
2022/03/12 13:23:22;;;;;;;12.70;4.50;;;;;;;;;;5116368;28;20458;-72
2022/03/12 13:25:53;;;;;;;5.70;4.47;;;;;;;;;;5115821;28;20524;-72
2022/03/12 13:28:39;;;;;;;5.97;4.60;;;;;;;;;;5116029;28;20474;-72
2022/03/12 13:31:34;;;;;;;4.90;4.27;;;;;;;;;;5115535;28;20503;-73
2022/03/12 13:34:03;;;;;;;5.80;4.00;;;;;;;;;;5080150;28;20461;-72
2022/03/12 13:36:32;;;;;;;7.40;4.90;;;;;;;;;;5116025;28;20445;-73
2022/03/12 13:38:59;;;;;;;4.33;3.80;;;;;;;;;;5115978;28;20469;-72
2022/03/12 13:41:28;;;;;;;6.63;3.30;;;;;;;;;;5115992;28;20456;-72
2022/03/12 13:43:55;;;;;;;6.43;4.67;;;;;;;;;;5115582;28;20446;-72
2022/03/12 13:46:23;;;;;;;5.87;4.03;;;;;;;;;;5115672;28;20485;-72
2022/03/12 13:49:01;;;;;;;6.10;4.37;;;;;;;;;;5115566;28;20481;-72
2022/03/12 13:51:28;;;;;;;6.57;3.90;;;;;;;;;;5115845;28;20457;-72
2022/03/12 13:53:56;;;;;;;7.07;4.37;;;;;;;;;;5115477;28;20481;-72
2022/03/12 13:56:24;;;;;;;5.43;4.40;;;;;;;;;;5115542;28;20446;-72
2022/03/12 13:58:53;;;;;;;5.77;3.90;;;;;;;;;;5115551;28;20569;-71
2022/03/12 14:01:38;;;;;;;6.33;3.83;;;;;;;;;;5115586;28;20920;-73
2022/03/12 14:04:06;;;;;;;4.67;3.53;;;;;;;;;;5114901;28;20790;-71
2022/03/12 14:06:34;;;;;;;7.63;4.53;;;;;;;;;;5115448;28;20492;-72
2022/03/12 14:09:03;;;;;;;4.93;3.20;;;;;;;;;;5115597;28;20474;-71
2022/03/12 14:11:34;;;;;;;5.63;4.10;;;;;;;;;;5115494;28;20496;-71
2022/03/12 14:14:03;;;;;;;6.87;4.30;;;;;;;;;;5115053;28;20503;-72
2022/03/12 14:16:30;;;;;;;4.20;2.70;;;;;;;;;;5115364;28;20480;-71
2022/03/12 14:19:00;;;;;;;4.87;4.37;;;;;;;;;;5115053;27;20552;-72
2022/03/12 14:21:36;;;;;;;8.00;4.23;;;;;;;;;;5115249;28;20489;-73
2022/03/12 14:24:10;;;;;;;9.83;4.67;;;;;;;;;;5115112;28;20499;-71
2022/03/12 14:26:45;;;;;;;6.80;4.03;;;;;;;;;;5114939;27;20858;-73
2022/03/12 14:29:13;;;;;;;7.07;4.50;;;;;;;;;;5115261;28;20453;-71
2022/03/12 14:31:42;;;;;;;4.93;3.57;;;;;;;;;;5114949;28;20457;-71
2022/03/12 14:34:09;;;;;;;5.23;3.47;;;;;;;;;;5114841;28;20869;-71
2022/03/12 14:36:38;;;;;;;5.43;3.53;;;;;;;;;;5114971;28;20498;-72
2022/03/12 14:39:05;;;;;;;4.30;3.60;;;;;;;;;;5114995;27;20457;-72
2022/03/12 14:41:32;;;;;;;15.03;4.17;;;;;;;;;;5114572;28;20445;-71
2022/03/12 14:44:00;;;;;;;9.07;4.80;;;;;;;;;;5114481;28;20935;-72
2022/03/12 14:46:28;;;;;;;5.83;4.30;;;;;;;;;;5114685;28;20516;-72
2022/03/12 14:48:57;;;;;;;7.80;5.57;;;;;;;;;;5114441;28;20481;-71